createdAt,value
2018-06-23T00:00:19.930Z,10.20
2018-06-23T00:02:47.445Z,10.10
2018-06-23T00:05:14.973Z,10.20
2018-06-23T00:07:42.536Z,10.20
2018-06-23T00:10:10.762Z,10.00
2018-06-23T00:12:39.038Z,9.90
2018-06-23T00:15:07.345Z,9.90
2018-06-23T00:17:35.617Z,10.00
2018-06-23T00:20:04.357Z,10.10
2018-06-23T00:22:31.857Z,9.90
2018-06-23T00:24:59.367Z,9.80
2018-06-23T00:27:26.869Z,10.00
2018-06-23T00:29:54.328Z,9.90
2018-06-23T00:32:21.820Z,9.90
2018-06-23T00:34:49.468Z,9.90
2018-06-23T00:37:16.928Z,9.90
2018-06-23T00:39:44.377Z,9.90
2018-06-23T00:42:11.892Z,9.90
2018-06-23T00:44:39.384Z,9.80
2018-06-23T00:47:06.864Z,9.80
2018-06-23T00:49:34.303Z,9.90
2018-06-23T00:52:01.865Z,10.00
2018-06-23T00:54:29.313Z,10.00
2018-06-23T00:59:36.021Z,9.70
2018-06-23T01:02:04.338Z,9.50
2018-06-23T01:04:32.692Z,9.60
2018-06-23T01:07:00.909Z,9.70
2018-06-23T01:09:29.194Z,9.70
2018-06-23T01:11:57.405Z,9.70
2018-06-23T01:14:25.647Z,9.70
2018-06-23T01:16:53.232Z,9.60
2018-06-23T01:19:20.701Z,9.50
2018-06-23T01:21:48.232Z,9.50
2018-06-23T01:24:15.772Z,9.50
2018-06-23T01:26:43.228Z,9.30
2018-06-23T01:29:10.778Z,9.20
2018-06-23T01:31:38.215Z,9.10
2018-06-23T01:34:05.752Z,9.20
2018-06-23T01:36:33.199Z,9.20
2018-06-23T01:39:00.751Z,9.10
2018-06-23T01:41:28.295Z,9.20
2018-06-23T01:43:55.767Z,9.30
2018-06-23T01:46:23.217Z,9.30
2018-06-23T01:48:50.729Z,9.30
2018-06-23T01:51:18.240Z,9.30
2018-06-23T01:53:45.708Z,9.20
2018-06-23T01:56:13.198Z,9.10
2018-06-23T01:58:41.040Z,9.10
2018-06-23T02:01:08.513Z,9.10
2018-06-23T02:03:36.043Z,9.10
2018-06-23T02:06:03.538Z,9.10
2018-06-23T02:08:31.777Z,9.20
2018-06-23T02:11:00.008Z,9.30
2018-06-23T02:16:01.664Z,9.30
2018-06-23T02:18:35.273Z,9.30
2018-06-23T02:21:09.028Z,9.20
2018-06-23T02:23:42.834Z,9.20
2018-06-23T02:26:16.681Z,9.10
2018-06-23T02:28:50.369Z,9.10
2018-06-23T02:31:24.206Z,9.00
2018-06-23T02:33:57.953Z,9.10
2018-06-23T02:36:26.207Z,9.20
2018-06-23T02:38:54.455Z,9.30
2018-06-23T02:41:27.253Z,9.30
2018-06-23T02:43:55.512Z,9.40
2018-06-23T02:46:23.764Z,9.30
2018-06-23T02:48:52.028Z,9.30
2018-06-23T02:51:20.280Z,9.40
2018-06-23T02:53:48.544Z,9.40
2018-06-23T02:56:16.789Z,9.50
2018-06-23T02:58:45.077Z,9.60
2018-06-23T03:01:13.351Z,9.60
2018-06-23T03:03:41.669Z,9.80
2018-06-23T03:06:10.075Z,9.70
2018-06-23T03:08:38.477Z,9.70
2018-06-23T03:11:06.743Z,9.70
2018-06-23T03:13:34.969Z,9.60
2018-06-23T03:16:03.230Z,9.70
2018-06-23T03:18:31.433Z,9.80
2018-06-23T03:20:59.670Z,9.80
2018-06-23T03:23:27.910Z,9.70
2018-06-23T03:25:56.165Z,9.80
2018-06-23T03:28:24.384Z,9.80
2018-06-23T03:30:52.638Z,9.90
2018-06-23T03:33:20.878Z,9.90
2018-06-23T03:35:49.148Z,10.00
2018-06-23T03:38:17.392Z,10.00
2018-06-23T03:40:45.625Z,10.10
2018-06-23T03:43:13.858Z,10.10
2018-06-23T03:45:42.930Z,10.10
2018-06-23T03:48:11.157Z,10.20
2018-06-23T03:50:40.294Z,10.30
2018-06-23T03:53:08.574Z,10.20
2018-06-23T03:55:36.812Z,10.20
2018-06-23T03:58:05.368Z,10.20
2018-06-23T04:00:33.593Z,10.10
2018-06-23T04:03:01.873Z,10.10
2018-06-23T04:05:30.426Z,10.10
2018-06-23T04:07:58.693Z,10.10
2018-06-23T04:10:26.909Z,9.90
2018-06-23T04:12:55.195Z,9.90
2018-06-23T04:15:23.397Z,9.90
2018-06-23T04:17:51.638Z,10.00
2018-06-23T04:20:19.870Z,10.00
2018-06-23T04:22:48.120Z,10.00
2018-06-23T04:25:16.321Z,10.00
2018-06-23T04:27:44.577Z,10.00
2018-06-23T04:30:12.782Z,10.10
2018-06-23T04:32:41.029Z,10.20
2018-06-23T04:35:09.254Z,10.20
2018-06-23T04:37:37.541Z,10.30
2018-06-23T04:40:05.805Z,10.50
2018-06-23T04:42:34.041Z,10.60
2018-06-23T04:45:02.298Z,10.60
2018-06-23T04:47:30.551Z,10.50
2018-06-23T04:49:58.773Z,10.60
2018-06-23T04:54:54.949Z,10.80
2018-06-23T04:57:23.182Z,10.90
2018-06-23T04:59:51.462Z,11.00
2018-06-23T05:02:19.729Z,11.20
2018-06-23T05:04:48.002Z,11.40
2018-06-23T05:07:16.190Z,11.50
2018-06-23T05:09:44.493Z,11.80
2018-06-23T05:12:12.689Z,11.90
2018-06-23T05:14:40.935Z,12.20
2018-06-23T05:17:09.150Z,12.30
2018-06-23T05:19:37.454Z,12.40
2018-06-23T05:22:05.889Z,12.60
2018-06-23T05:24:34.112Z,12.70
2018-06-23T05:27:02.347Z,13.00
2018-06-23T05:29:30.575Z,13.40
2018-06-23T05:31:58.770Z,13.60
2018-06-23T05:34:27.119Z,13.80
2018-06-23T05:36:55.345Z,13.80
2018-06-23T05:39:23.653Z,14.00
2018-06-23T05:41:51.841Z,14.10
2018-06-23T05:44:20.142Z,14.30
2018-06-23T05:46:48.402Z,14.30
2018-06-23T05:49:16.677Z,14.50
2018-06-23T05:51:44.881Z,14.40
2018-06-23T05:54:13.148Z,14.50
2018-06-23T05:56:41.357Z,14.80
2018-06-23T05:59:09.655Z,14.90
2018-06-23T06:01:37.950Z,15.00
2018-06-23T06:04:06.299Z,15.20
2018-06-23T06:06:35.667Z,15.30
2018-06-23T06:09:05.680Z,15.40
2018-06-23T06:11:33.908Z,15.30
2018-06-23T06:14:02.187Z,15.20
2018-06-23T06:16:50.865Z,15.30
2018-06-23T06:19:19.112Z,15.10
2018-06-23T06:21:47.323Z,15.00
2018-06-23T06:24:15.565Z,15.20
2018-06-23T06:26:43.758Z,15.00
2018-06-23T06:29:12.080Z,15.20
2018-06-23T06:31:40.355Z,15.30
2018-06-23T06:34:08.565Z,15.30
2018-06-23T06:36:36.789Z,15.40
2018-06-23T06:39:06.401Z,15.50
2018-06-23T06:41:34.656Z,15.80
2018-06-23T06:44:03.116Z,16.00
2018-06-23T06:46:31.371Z,16.30
2018-06-23T06:48:59.550Z,16.60
2018-06-23T06:51:27.901Z,16.90
2018-06-23T06:53:56.096Z,17.10
2018-06-23T06:56:24.369Z,17.40
2018-06-23T06:58:52.584Z,17.30
2018-06-23T07:01:20.893Z,16.90
2018-06-23T07:03:49.103Z,16.70
2018-06-23T07:06:17.361Z,16.60
2018-06-23T07:11:13.640Z,17.10
2018-06-23T07:13:41.827Z,17.10
2018-06-23T07:16:10.062Z,17.00
2018-06-23T07:18:38.265Z,16.50
2018-06-23T07:21:06.538Z,16.40
2018-06-23T07:23:34.769Z,16.50
2018-06-23T07:26:02.996Z,16.10
2018-06-23T07:28:31.296Z,16.50
2018-06-23T07:30:59.533Z,16.80
2018-06-23T07:33:27.709Z,17.10
2018-06-23T07:35:56.845Z,17.30
2018-06-23T07:38:25.046Z,17.20
2018-06-23T07:40:53.271Z,17.30
2018-06-23T07:43:21.450Z,17.10
2018-06-23T07:45:49.670Z,17.10
2018-06-23T07:48:17.894Z,17.20
2018-06-23T07:50:46.326Z,17.10
2018-06-23T07:53:14.570Z,16.90
2018-06-23T07:55:42.779Z,16.90
2018-06-23T07:58:11.045Z,16.70
2018-06-23T08:00:39.241Z,16.80
2018-06-23T08:03:07.477Z,16.70
2018-06-23T08:05:35.722Z,16.50
2018-06-23T08:08:04.338Z,16.50
2018-06-23T08:10:32.532Z,16.50
2018-06-23T08:13:00.767Z,16.40
2018-06-23T08:15:28.989Z,16.60
2018-06-23T08:17:57.221Z,17.00
2018-06-23T08:20:25.448Z,17.00
2018-06-23T08:22:53.719Z,16.80
2018-06-23T08:25:21.928Z,17.10
2018-06-23T08:27:50.462Z,17.60
2018-06-23T08:30:18.681Z,18.00
2018-06-23T08:32:46.885Z,18.30
2018-06-23T08:35:15.124Z,18.40
2018-06-23T08:37:43.462Z,17.90
2018-06-23T08:40:11.666Z,18.10
2018-06-23T08:42:39.893Z,17.90
2018-06-23T08:45:08.151Z,17.80
2018-06-23T08:47:36.432Z,17.70
2018-06-23T08:50:04.812Z,17.40
2018-06-23T08:52:33.113Z,17.20
2018-06-23T08:55:01.349Z,17.10
2018-06-23T08:57:29.620Z,17.50
2018-06-23T08:59:57.805Z,17.90
2018-06-23T09:02:26.070Z,18.20
2018-06-23T09:04:54.627Z,18.30
2018-06-23T09:07:22.859Z,18.50
2018-06-23T09:09:51.105Z,18.50
2018-06-23T09:12:19.285Z,18.30
2018-06-23T09:14:47.568Z,18.40
2018-06-23T09:17:15.909Z,18.10
2018-06-23T09:19:44.201Z,17.70
2018-06-23T09:22:12.362Z,17.60
2018-06-23T09:24:40.588Z,17.50
2018-06-23T09:27:08.796Z,17.50
2018-06-23T09:29:37.012Z,17.50
2018-06-23T09:32:05.305Z,17.70
2018-06-23T09:34:33.597Z,17.90
2018-06-23T09:37:01.819Z,18.20
2018-06-23T09:39:30.065Z,18.60
2018-06-23T09:41:58.296Z,18.60
2018-06-23T09:44:26.516Z,18.00
2018-06-23T09:46:54.763Z,17.60
2018-06-23T09:49:22.997Z,17.40
2018-06-23T09:51:51.233Z,17.80
2018-06-23T09:54:19.470Z,17.70
2018-06-23T09:56:47.671Z,17.60
2018-06-23T09:59:15.948Z,17.60
2018-06-23T10:01:44.203Z,17.90
2018-06-23T10:04:12.469Z,18.20
2018-06-23T10:06:40.816Z,17.90
2018-06-23T10:09:09.971Z,17.50
2018-06-23T10:11:38.217Z,17.30
2018-06-23T10:14:06.983Z,17.20
2018-06-23T10:16:36.582Z,17.30
2018-06-23T10:19:05.054Z,17.80
2018-06-23T10:21:34.113Z,18.30
2018-06-23T10:24:02.542Z,18.80
2018-06-23T10:26:30.957Z,19.20
2018-06-23T10:28:59.414Z,19.20
2018-06-23T10:31:27.801Z,19.00
2018-06-23T10:33:56.172Z,18.80
2018-06-23T10:36:24.491Z,18.60
2018-06-23T10:38:53.235Z,18.10
2018-06-23T10:41:22.564Z,18.10
2018-06-23T10:43:51.277Z,18.10
2018-06-23T10:46:19.605Z,18.20
2018-06-23T10:48:47.962Z,18.70
2018-06-23T10:51:16.533Z,19.00
2018-06-23T10:53:44.927Z,19.40
2018-06-23T10:56:13.249Z,20.10
2018-06-23T10:58:41.457Z,20.10
2018-06-23T11:01:09.770Z,19.50
2018-06-23T11:03:38.021Z,18.60
2018-06-23T11:06:06.291Z,18.10
2018-06-23T11:11:02.692Z,18.00
2018-06-23T11:13:31.061Z,18.00
2018-06-23T11:15:59.427Z,18.30
2018-06-23T11:18:27.748Z,18.30
2018-06-23T11:20:56.049Z,18.50
2018-06-23T11:23:24.270Z,18.90
2018-06-23T11:25:52.529Z,19.10
2018-06-23T11:28:20.767Z,19.00
2018-06-23T11:30:49.049Z,18.80
2018-06-23T11:33:17.293Z,18.80
2018-06-23T11:35:45.628Z,18.50
2018-06-23T11:38:13.821Z,18.40
2018-06-23T11:40:42.217Z,18.40
2018-06-23T11:43:10.436Z,18.50
2018-06-23T11:45:38.681Z,18.30
2018-06-23T11:48:06.993Z,18.40
2018-06-23T11:50:35.278Z,18.60
2018-06-23T11:55:31.645Z,19.00
2018-06-23T11:57:59.894Z,18.90
2018-06-23T12:00:28.141Z,19.00
2018-06-23T12:02:56.375Z,19.50
2018-06-23T12:05:24.617Z,19.80
2018-06-23T12:07:52.839Z,19.80
2018-06-23T12:10:21.189Z,19.70
2018-06-23T12:12:49.460Z,19.70
2018-06-23T12:15:17.730Z,19.50
2018-06-23T12:17:46.014Z,19.50
2018-06-23T12:20:14.254Z,19.50
2018-06-23T12:22:42.614Z,19.90
2018-06-23T12:25:10.841Z,20.20
2018-06-23T12:27:39.099Z,20.30
2018-06-23T12:30:07.389Z,20.10
2018-06-23T12:32:35.686Z,19.50
2018-06-23T12:35:04.022Z,19.40
2018-06-23T12:37:32.520Z,19.90
2018-06-23T12:40:00.735Z,20.20
2018-06-23T12:42:29.072Z,20.70
2018-06-23T12:44:57.301Z,21.00
2018-06-23T12:47:25.614Z,21.10
2018-06-23T12:49:53.900Z,20.90
2018-06-23T12:52:22.141Z,20.10
2018-06-23T12:54:50.336Z,20.00
2018-06-23T12:57:18.592Z,19.80
2018-06-23T12:59:46.826Z,20.30
2018-06-23T13:02:15.058Z,20.50
2018-06-23T13:04:43.286Z,20.60
2018-06-23T13:07:11.525Z,20.40
2018-06-23T13:09:39.717Z,20.20
2018-06-23T13:12:08.001Z,20.20
2018-06-23T13:14:36.238Z,20.10
2018-06-23T13:17:04.522Z,20.20
2018-06-23T13:19:32.848Z,20.60
2018-06-23T13:22:01.139Z,20.60
2018-06-23T13:24:29.785Z,20.20
2018-06-23T13:26:58.042Z,20.40
2018-06-23T13:29:26.317Z,20.40
2018-06-23T13:31:54.635Z,20.20
2018-06-23T13:34:22.999Z,19.90
2018-06-23T13:36:51.299Z,19.80
2018-06-23T13:39:19.596Z,19.70
2018-06-23T13:41:47.817Z,19.80
2018-06-23T13:44:16.134Z,19.90
2018-06-23T13:46:44.357Z,20.10
2018-06-23T13:49:12.623Z,20.00
2018-06-23T13:51:41.295Z,20.30
2018-06-23T13:54:09.647Z,20.60
2018-06-23T13:56:37.897Z,20.60
2018-06-23T13:59:06.149Z,20.60
2018-06-23T14:01:34.438Z,20.30
2018-06-23T14:04:02.772Z,20.10
2018-06-23T14:06:31.068Z,20.00
2018-06-23T14:08:59.433Z,20.10
2018-06-23T14:11:27.764Z,20.10
2018-06-23T14:13:56.059Z,19.70
2018-06-23T14:16:24.277Z,19.70
2018-06-23T14:18:52.590Z,20.30
2018-06-23T14:21:20.797Z,20.60
2018-06-23T14:23:49.505Z,20.30
2018-06-23T14:26:17.742Z,20.40
2018-06-23T14:28:46.113Z,20.70
2018-06-23T14:31:14.417Z,20.70
2018-06-23T14:33:42.659Z,20.30
2018-06-23T14:36:10.959Z,20.10
2018-06-23T14:38:39.354Z,19.50
2018-06-23T14:41:07.702Z,19.10
2018-06-23T14:43:35.960Z,19.10
2018-06-23T14:46:04.421Z,19.20
2018-06-23T14:48:32.676Z,19.30
2018-06-23T14:51:00.973Z,18.90
2018-06-23T14:53:29.245Z,18.80
2018-06-23T14:55:57.829Z,18.80
2018-06-23T14:58:26.070Z,18.70
2018-06-23T15:00:54.302Z,18.70
2018-06-23T15:03:22.502Z,18.70
2018-06-23T15:05:50.751Z,18.60
2018-06-23T15:08:30.109Z,18.70
2018-06-23T15:11:16.388Z,18.80
2018-06-23T15:13:44.678Z,19.10
2018-06-23T15:16:12.944Z,19.30
2018-06-23T15:18:41.165Z,19.20
2018-06-23T15:23:37.399Z,18.70
2018-06-23T15:26:05.711Z,18.30
2018-06-23T15:28:33.921Z,18.40
2018-06-23T15:31:02.201Z,18.20
2018-06-23T15:33:30.529Z,18.20
2018-06-23T15:35:58.787Z,18.30
2018-06-23T15:38:27.366Z,18.30
2018-06-23T15:40:55.581Z,18.30
2018-06-23T15:43:23.829Z,18.00
2018-06-23T15:45:51.997Z,18.00
2018-06-23T15:48:20.214Z,18.00
2018-06-23T15:50:48.414Z,18.00
2018-06-23T15:53:16.744Z,18.20
2018-06-23T15:55:44.955Z,18.30
2018-06-23T15:58:13.288Z,18.30
2018-06-23T16:00:41.493Z,18.40
2018-06-23T16:03:09.717Z,18.40
2018-06-23T16:05:37.932Z,18.70
2018-06-23T16:10:34.096Z,18.60
2018-06-23T16:13:02.360Z,18.50
2018-06-23T16:15:30.549Z,18.50
2018-06-23T16:17:58.842Z,18.40
2018-06-23T16:20:27.126Z,18.30
2018-06-23T16:22:55.388Z,18.20
2018-06-23T16:25:23.620Z,18.20
2018-06-23T16:27:51.949Z,18.10
2018-06-23T16:30:20.233Z,18.30
2018-06-23T16:32:48.465Z,18.30
2018-06-23T16:35:16.970Z,18.20
2018-06-23T16:37:45.040Z,18.10
2018-06-23T16:40:13.276Z,18.10
2018-06-23T16:42:41.617Z,18.00
2018-06-23T16:45:09.922Z,18.10
2018-06-23T16:47:38.349Z,18.20
2018-06-23T16:50:06.722Z,18.30
2018-06-23T16:52:35.180Z,18.50
2018-06-23T16:55:03.643Z,18.50
2018-06-23T16:57:32.024Z,18.50
2018-06-23T17:00:00.513Z,18.40
2018-06-23T17:02:29.014Z,18.30
2018-06-23T17:04:57.536Z,18.20
2018-06-23T17:07:25.809Z,18.10
2018-06-23T17:09:54.089Z,17.90
2018-06-23T17:12:22.416Z,17.90
2018-06-23T17:14:50.797Z,17.80
2018-06-23T17:17:19.049Z,17.90
2018-06-23T17:19:47.287Z,18.00
2018-06-23T17:22:15.526Z,17.90
2018-06-23T17:24:43.863Z,17.90
2018-06-23T17:27:12.085Z,17.80
2018-06-23T17:29:40.373Z,17.70
2018-06-23T17:32:08.681Z,17.60
2018-06-23T17:34:36.977Z,17.40
2018-06-23T17:37:05.306Z,17.30
2018-06-23T17:39:33.641Z,17.30
2018-06-23T17:42:01.952Z,17.40
2018-06-23T17:44:30.255Z,17.30
2018-06-23T17:46:58.529Z,17.20
2018-06-23T17:49:26.817Z,17.20
2018-06-23T17:51:55.267Z,17.10
2018-06-23T17:54:23.557Z,17.00
2018-06-23T17:56:51.812Z,17.00
2018-06-23T17:59:20.368Z,16.80
2018-06-23T18:01:48.624Z,16.70
2018-06-23T18:04:16.872Z,16.60
2018-06-23T18:09:13.112Z,16.30
2018-06-23T18:11:41.664Z,16.10
2018-06-23T18:14:10.281Z,16.10
2018-06-23T18:16:38.653Z,16.00
2018-06-23T18:19:07.449Z,15.80
2018-06-23T18:21:35.848Z,15.80
2018-06-23T18:24:04.072Z,15.80
2018-06-23T18:26:32.634Z,15.80
2018-06-23T18:29:02.169Z,15.80
2018-06-23T18:31:30.693Z,15.80
2018-06-23T18:33:58.982Z,15.80
2018-06-23T18:36:27.314Z,15.80
2018-06-23T18:38:55.553Z,15.90
2018-06-23T18:41:23.821Z,15.90
2018-06-23T18:43:52.061Z,15.90
2018-06-23T18:46:20.436Z,15.90
2018-06-23T18:48:48.664Z,15.90
2018-06-23T18:51:16.954Z,15.90
2018-06-23T18:53:45.253Z,15.90
2018-06-23T18:56:13.521Z,15.90
2018-06-23T18:58:41.959Z,15.90
2018-06-23T19:01:10.242Z,15.90
2018-06-23T19:03:38.436Z,15.90
2018-06-23T19:06:06.774Z,15.90
2018-06-23T19:08:34.996Z,15.90
2018-06-23T19:11:03.238Z,15.90
2018-06-23T19:13:31.456Z,15.90
2018-06-23T19:15:59.714Z,16.00
2018-06-23T19:18:28.000Z,15.90
2018-06-23T19:20:56.429Z,15.90
2018-06-23T19:23:24.717Z,15.90
2018-06-23T19:25:53.052Z,15.80
2018-06-23T19:28:21.303Z,15.80
2018-06-23T19:30:49.610Z,15.80
2018-06-23T19:33:17.985Z,15.80
2018-06-23T19:35:46.494Z,15.90
2018-06-23T19:38:14.925Z,15.80
2018-06-23T19:40:43.177Z,15.80
2018-06-23T19:43:11.676Z,15.80
2018-06-23T19:45:40.070Z,15.70
2018-06-23T19:48:08.365Z,15.70
2018-06-23T19:50:36.634Z,15.70
2018-06-23T19:53:05.058Z,15.80
2018-06-23T19:55:33.413Z,15.80
2018-06-23T19:58:01.927Z,15.80
2018-06-23T20:00:30.236Z,15.70
2018-06-23T20:02:58.531Z,15.70
2018-06-23T20:05:26.770Z,15.70
2018-06-23T20:10:23.021Z,15.70
2018-06-23T20:12:51.273Z,15.70
2018-06-23T20:15:19.490Z,15.60
2018-06-23T20:17:47.826Z,15.60
2018-06-23T20:20:17.129Z,15.50
2018-06-23T20:22:45.364Z,15.50
2018-06-23T20:25:13.533Z,15.50
2018-06-23T20:27:41.853Z,15.50
2018-06-23T20:30:10.073Z,15.60
2018-06-23T20:32:38.310Z,15.50
2018-06-23T20:35:06.648Z,15.50
2018-06-23T20:37:34.948Z,15.50
2018-06-23T20:40:03.258Z,15.50
2018-06-23T20:42:31.484Z,15.50
2018-06-23T20:44:59.718Z,15.50
2018-06-23T20:47:27.978Z,15.40
2018-06-23T20:49:56.252Z,15.40
2018-06-23T20:52:24.488Z,15.40
2018-06-23T20:54:52.684Z,15.40
2018-06-23T20:57:20.904Z,15.30
2018-06-23T20:59:49.112Z,15.40
2018-06-23T21:02:17.277Z,15.30
2018-06-23T21:04:46.001Z,15.20
2018-06-23T21:07:14.693Z,15.10
2018-06-23T21:09:43.685Z,15.00
2018-06-23T21:12:12.358Z,15.00
2018-06-23T21:14:41.089Z,15.00
2018-06-23T21:17:10.684Z,15.00
2018-06-23T21:19:39.570Z,15.00
2018-06-23T21:22:08.327Z,15.00
2018-06-23T21:24:36.959Z,15.00
2018-06-23T21:27:05.739Z,15.00
2018-06-23T21:29:34.429Z,14.90
2018-06-23T21:32:02.637Z,15.00
2018-06-23T21:34:30.860Z,15.00
2018-06-23T21:36:59.045Z,15.00
2018-06-23T21:39:27.242Z,15.10
2018-06-23T21:41:55.424Z,15.10
2018-06-23T21:44:23.629Z,15.20
2018-06-23T21:46:51.800Z,15.10
2018-06-23T21:49:20.017Z,15.10
2018-06-23T21:51:48.189Z,15.10
2018-06-23T21:54:16.417Z,15.20
2018-06-23T21:56:44.605Z,15.10
2018-06-23T21:59:12.833Z,15.10
2018-06-23T22:01:41.082Z,15.10
2018-06-23T22:04:09.289Z,15.00
2018-06-23T22:06:37.461Z,15.10
2018-06-23T22:09:07.501Z,15.10
2018-06-23T22:11:35.684Z,15.20
2018-06-23T22:14:04.095Z,15.20
2018-06-23T22:16:32.306Z,15.30
2018-06-23T22:19:00.545Z,15.20
2018-06-23T22:21:28.730Z,15.20
2018-06-23T22:23:56.937Z,15.20
2018-06-23T22:26:25.205Z,15.20
2018-06-23T22:28:53.445Z,15.20
2018-06-23T22:31:21.741Z,15.20
2018-06-23T22:33:49.937Z,15.20
2018-06-23T22:36:18.136Z,15.20
2018-06-23T22:38:46.308Z,15.20
2018-06-23T22:41:14.557Z,15.10
2018-06-23T22:43:42.742Z,15.00
2018-06-23T22:46:10.997Z,14.90
2018-06-23T22:48:39.209Z,14.80
2018-06-23T22:51:07.423Z,14.90
2018-06-23T22:53:35.637Z,14.90
2018-06-23T22:56:03.946Z,14.90
2018-06-23T22:58:32.177Z,14.90
2018-06-23T23:01:00.406Z,14.80
2018-06-23T23:03:28.589Z,14.90
2018-06-23T23:05:56.921Z,14.80
2018-06-23T23:08:25.096Z,14.80
2018-06-23T23:10:53.333Z,14.70
2018-06-23T23:13:21.603Z,14.80
2018-06-23T23:15:49.833Z,14.60
2018-06-23T23:18:17.997Z,14.50
2018-06-23T23:20:46.269Z,14.60
2018-06-23T23:23:14.469Z,14.70
2018-06-23T23:25:42.693Z,14.70
2018-06-23T23:28:10.906Z,14.50
2018-06-23T23:30:39.104Z,14.50
2018-06-23T23:33:07.320Z,14.40
2018-06-23T23:35:35.485Z,14.30
2018-06-23T23:38:03.713Z,14.30
2018-06-23T23:40:31.931Z,14.20
2018-06-23T23:43:00.155Z,14.20
2018-06-23T23:45:28.349Z,14.10
2018-06-23T23:47:56.632Z,13.90
2018-06-23T23:50:24.801Z,13.80
2018-06-23T23:52:53.060Z,13.80
2018-06-23T23:55:21.281Z,13.80
2018-06-23T23:57:49.521Z,13.80
